DAY weather

James M Cox Dayton International Airport
Dayton, Ohio, United States

Public forecast

Using degrees Fahrenheit for public forecast. Weather courtesy of forecast.io.

Current aviation weather report (METAR) for James M Cox Dayton International Airport

Retrieved 2019/12/08 04:56 UTC (9 minutes ago):

KDAY 080456Z 14008KT 10SM FEW250 M01/M06 A3029 RMK AO2 SLP266 T10061056 400561067

Aviation forecast (TAF) for James M Cox Dayton International Airport

Retrieved 2019-12-08 00:33 UTC (5 hours ago):

TAF KDAY 072330Z 0800/0824 13005KT P6SM SCT250 FM080900 16007KT P6SM BKN250 FM081700 20012G18KT P6SM OVC060 FM082200 19009KT P6SM OVC030